createdAt,value
2022-10-13T00:01:26.900Z,4.30
2022-10-13T00:03:53.197Z,4.30
2022-10-13T00:06:21.083Z,4.13
2022-10-13T00:08:47.467Z,4.00
2022-10-13T00:11:15.256Z,4.20
2022-10-13T00:13:42.409Z,4.23
2022-10-13T00:16:09.271Z,3.90
2022-10-13T00:18:35.534Z,3.97
2022-10-13T00:21:06.218Z,3.93
2022-10-13T00:23:33.577Z,4.00
2022-10-13T00:26:02.300Z,3.70
2022-10-13T00:28:28.573Z,4.20
2022-10-13T00:30:54.804Z,4.07
2022-10-13T00:33:21.140Z,4.20
2022-10-13T00:35:48.242Z,3.90
2022-10-13T00:38:15.367Z,4.00
2022-10-13T00:40:49.183Z,4.23
2022-10-13T00:43:16.653Z,4.27
2022-10-13T00:45:43.026Z,4.40
2022-10-13T00:48:09.340Z,4.23
2022-10-13T00:50:41.091Z,4.30
2022-10-13T00:53:07.742Z,4.20
2022-10-13T00:55:35.797Z,4.00
2022-10-13T00:58:05.342Z,4.00
2022-10-13T01:00:32.755Z,3.97
2022-10-13T01:02:59.046Z,4.20
2022-10-13T01:05:25.782Z,4.10
2022-10-13T01:07:52.116Z,4.13
2022-10-13T01:10:29.124Z,4.30
2022-10-13T01:12:59.673Z,4.23
2022-10-13T01:15:33.378Z,4.30
2022-10-13T01:18:09.422Z,4.20
2022-10-13T01:20:54.409Z,4.20
2022-10-13T01:23:23.770Z,4.07
2022-10-13T01:25:56.047Z,4.20
2022-10-13T01:28:34.494Z,4.27
2022-10-13T01:31:20.870Z,4.10
2022-10-13T01:33:56.817Z,4.40
2022-10-13T01:36:23.030Z,4.20
2022-10-13T01:38:49.240Z,4.30
2022-10-13T01:41:32.929Z,4.30
2022-10-13T01:44:05.186Z,4.20
2022-10-13T01:46:36.463Z,4.00
2022-10-13T01:49:04.570Z,4.23
2022-10-13T01:51:31.394Z,4.37
2022-10-13T01:53:57.664Z,4.40
2022-10-13T01:56:24.038Z,4.10
2022-10-13T01:58:51.154Z,4.20
2022-10-13T02:01:32.979Z,4.30
2022-10-13T02:04:17.656Z,4.30
2022-10-13T02:06:49.902Z,4.30
2022-10-13T02:09:31.390Z,4.30
2022-10-13T02:12:10.037Z,4.50
2022-10-13T02:14:38.194Z,4.50
2022-10-13T02:17:05.037Z,4.30
2022-10-13T02:19:34.034Z,4.40
2022-10-13T02:22:00.465Z,4.33
2022-10-13T02:24:26.747Z,4.20
2022-10-13T02:26:53.184Z,4.40
2022-10-13T02:29:19.601Z,4.50
2022-10-13T02:31:46.163Z,4.40
2022-10-13T02:34:12.908Z,4.47
2022-10-13T02:36:39.867Z,4.60
2022-10-13T02:39:07.387Z,4.10
2022-10-13T02:41:33.627Z,4.50
2022-10-13T02:43:59.846Z,4.30
2022-10-13T02:46:26.099Z,6.10
2022-10-13T02:48:52.517Z,4.30
2022-10-13T02:51:18.907Z,4.50
2022-10-13T02:53:45.142Z,4.30
2022-10-13T02:56:11.392Z,4.20
2022-10-13T02:58:37.649Z,4.40
2022-10-13T03:01:07.087Z,4.30
2022-10-13T03:03:33.363Z,4.40
2022-10-13T03:05:59.612Z,4.07
2022-10-13T03:08:25.835Z,3.90
2022-10-13T03:10:52.104Z,4.20
2022-10-13T03:13:18.349Z,4.20
2022-10-13T03:15:44.719Z,4.40
2022-10-13T03:18:11.042Z,4.30
2022-10-13T03:20:37.296Z,4.20
2022-10-13T03:23:03.540Z,4.13
2022-10-13T03:25:29.793Z,4.30
2022-10-13T03:27:56.202Z,4.20
2022-10-13T03:30:22.425Z,4.33
2022-10-13T03:32:48.653Z,4.40
2022-10-13T03:35:14.957Z,4.00
2022-10-13T03:37:41.241Z,4.20
2022-10-13T03:40:07.902Z,4.20
2022-10-13T03:42:37.207Z,4.17
2022-10-13T03:45:04.035Z,4.20
2022-10-13T03:47:30.788Z,5.53
2022-10-13T03:49:57.010Z,4.20
2022-10-13T03:52:23.595Z,4.40
2022-10-13T03:54:49.852Z,4.30
2022-10-13T03:57:16.175Z,4.20
2022-10-13T03:59:42.501Z,4.20
2022-10-13T04:02:08.796Z,4.13
2022-10-13T04:04:35.241Z,4.10
2022-10-13T04:07:01.491Z,4.10
2022-10-13T04:09:27.756Z,4.03
2022-10-13T04:11:53.988Z,4.30
2022-10-13T04:14:20.292Z,3.90
2022-10-13T04:16:46.666Z,4.10
2022-10-13T04:19:14.628Z,4.30
2022-10-13T04:21:41.190Z,4.30
2022-10-13T04:24:07.622Z,4.20
2022-10-13T04:26:34.873Z,4.40
2022-10-13T04:29:02.547Z,4.13
2022-10-13T04:31:29.092Z,4.20
2022-10-13T04:33:55.348Z,4.40
2022-10-13T04:36:21.834Z,4.23
2022-10-13T04:38:48.058Z,4.40
2022-10-13T04:41:15.492Z,4.40
2022-10-13T04:43:42.047Z,4.30
2022-10-13T04:46:15.219Z,3.97
2022-10-13T04:48:41.518Z,4.30
2022-10-13T04:51:09.036Z,4.10
2022-10-13T04:53:35.399Z,4.33
2022-10-13T04:56:05.839Z,4.20
2022-10-13T04:58:32.445Z,4.30
2022-10-13T05:00:58.848Z,4.07
2022-10-13T05:03:25.911Z,4.20
2022-10-13T05:05:52.677Z,4.10
2022-10-13T05:08:19.120Z,4.20
2022-10-13T05:10:58.371Z,4.10
2022-10-13T05:13:25.298Z,4.50
2022-10-13T05:15:51.786Z,4.20
2022-10-13T05:18:18.164Z,4.20
2022-10-13T05:20:44.434Z,4.40
2022-10-13T05:23:10.643Z,4.10
2022-10-13T05:25:37.791Z,4.30
2022-10-13T05:28:04.829Z,4.20
2022-10-13T05:30:31.285Z,4.00
2022-10-13T05:32:58.094Z,4.10
2022-10-13T05:35:24.735Z,4.13
2022-10-13T05:37:50.994Z,4.20
2022-10-13T05:40:17.260Z,4.10
2022-10-13T05:42:43.508Z,4.10
2022-10-13T05:45:10.115Z,4.20
2022-10-13T05:47:36.427Z,4.10
2022-10-13T05:50:02.702Z,4.20
2022-10-13T05:52:31.700Z,4.10
2022-10-13T05:54:59.882Z,4.20
2022-10-13T05:57:31.036Z,4.20
2022-10-13T06:00:00.385Z,4.40
2022-10-13T06:02:28.357Z,4.20
2022-10-13T06:04:56.711Z,4.10
2022-10-13T06:07:23.813Z,4.30
2022-10-13T06:09:50.265Z,4.33
2022-10-13T06:12:16.621Z,4.33
2022-10-13T06:14:42.844Z,4.40
2022-10-13T06:17:09.198Z,4.23
2022-10-13T06:19:35.462Z,4.20
2022-10-13T06:22:03.740Z,4.50
2022-10-13T06:24:30.426Z,4.00
2022-10-13T06:26:56.828Z,4.30
2022-10-13T06:29:23.126Z,4.20
2022-10-13T06:31:49.379Z,4.10
2022-10-13T06:34:15.624Z,4.20
2022-10-13T06:36:42.169Z,4.40
2022-10-13T06:39:08.697Z,4.40
2022-10-13T06:41:34.953Z,4.40
2022-10-13T06:44:01.189Z,4.27
2022-10-13T06:46:27.524Z,4.10
2022-10-13T06:48:53.801Z,4.27
2022-10-13T06:51:20.037Z,4.10
2022-10-13T06:53:46.272Z,4.20
2022-10-13T06:56:12.543Z,4.20
2022-10-13T06:58:38.874Z,4.30
2022-10-13T07:01:05.675Z,4.40
2022-10-13T07:03:32.331Z,4.20
2022-10-13T07:06:02.116Z,4.17
2022-10-13T07:08:28.337Z,4.30
2022-10-13T07:10:54.616Z,4.30
2022-10-13T07:15:48.043Z,4.80
2022-10-13T07:18:14.297Z,4.27
2022-10-13T07:20:40.533Z,4.33
2022-10-13T07:23:06.969Z,4.33
2022-10-13T07:25:33.237Z,4.20
2022-10-13T07:27:59.724Z,4.20
2022-10-13T07:30:26.021Z,4.30
2022-10-13T07:32:52.364Z,4.23
2022-10-13T07:35:18.794Z,4.70
2022-10-13T07:37:45.085Z,4.20
2022-10-13T07:40:11.481Z,4.30
2022-10-13T07:42:37.914Z,5.03
2022-10-13T07:45:04.352Z,4.60
2022-10-13T07:47:30.638Z,4.27
2022-10-13T07:49:56.901Z,4.07
2022-10-13T07:52:23.299Z,3.83
2022-10-13T07:54:50.116Z,4.50
2022-10-13T07:57:16.507Z,4.43
2022-10-13T07:59:42.747Z,4.13
2022-10-13T08:02:09.493Z,3.90
2022-10-13T08:04:36.345Z,4.00
2022-10-13T08:07:03.220Z,4.07
2022-10-13T08:09:29.654Z,4.00
2022-10-13T08:12:00.604Z,3.90
2022-10-13T08:14:28.890Z,3.97
2022-10-13T08:16:55.392Z,4.00
2022-10-13T08:19:22.035Z,3.90
2022-10-13T08:22:07.827Z,4.60
2022-10-13T08:24:35.738Z,3.97
2022-10-13T08:27:02.020Z,4.33
2022-10-13T08:29:28.450Z,3.80
2022-10-13T08:31:55.377Z,3.97
2022-10-13T08:34:25.450Z,3.63
2022-10-13T08:36:53.385Z,3.77
2022-10-13T08:39:20.402Z,3.80
2022-10-13T08:41:46.876Z,3.70
2022-10-13T08:47:27.539Z,3.70
2022-10-13T08:49:59.961Z,3.50
2022-10-13T08:52:28.466Z,3.70
2022-10-13T08:54:56.017Z,4.17
2022-10-13T08:57:22.841Z,4.17
2022-10-13T08:59:49.839Z,3.70
2022-10-13T09:02:23.049Z,3.47
2022-10-13T09:04:50.811Z,3.50
2022-10-13T09:07:24.493Z,3.50
2022-10-13T09:09:51.949Z,3.47
2022-10-13T09:12:24.126Z,3.50
2022-10-13T09:15:17.867Z,3.50
2022-10-13T09:17:44.726Z,3.40
2022-10-13T09:20:29.139Z,3.30
2022-10-13T09:23:05.984Z,3.37
2022-10-13T09:25:40.103Z,3.30
2022-10-13T09:28:10.734Z,3.20
2022-10-13T09:30:41.514Z,4.27
2022-10-13T09:33:13.800Z,3.30
2022-10-13T09:35:40.040Z,3.20
2022-10-13T09:38:36.359Z,3.10
2022-10-13T09:41:20.274Z,3.07
2022-10-13T09:43:46.461Z,3.20
2022-10-13T09:46:12.708Z,3.10
2022-10-13T09:48:42.236Z,3.20
2022-10-13T09:51:28.010Z,3.20
2022-10-13T09:53:54.549Z,3.30
2022-10-13T09:56:26.677Z,3.30
2022-10-13T09:58:52.997Z,4.23
2022-10-13T10:01:25.699Z,3.20
2022-10-13T10:03:52.222Z,2.90
2022-10-13T10:06:19.121Z,3.20
2022-10-13T10:09:03.661Z,3.00
2022-10-13T10:11:34.466Z,3.00
2022-10-13T10:14:09.607Z,3.47
2022-10-13T10:16:38.661Z,3.10
2022-10-13T10:19:12.588Z,3.03
2022-10-13T10:21:58.351Z,3.00
2022-10-13T10:24:38.428Z,2.90
2022-10-13T10:29:54.104Z,2.90
2022-10-13T10:32:38.893Z,3.00
2022-10-13T10:35:05.167Z,2.90
2022-10-13T10:37:52.577Z,2.70
2022-10-13T10:40:24.960Z,2.90
2022-10-13T10:42:52.363Z,2.90
2022-10-13T10:45:21.751Z,2.90
2022-10-13T10:47:50.630Z,2.70
2022-10-13T10:50:17.778Z,2.70
2022-10-13T10:52:53.198Z,2.60
2022-10-13T10:55:31.827Z,3.37
2022-10-13T10:58:07.235Z,2.57
2022-10-13T11:00:38.522Z,2.60
2022-10-13T11:03:26.448Z,2.60
2022-10-13T11:06:00.025Z,2.50
2022-10-13T11:08:49.565Z,2.70
2022-10-13T11:11:35.023Z,2.60
2022-10-13T11:14:06.653Z,2.50
2022-10-13T11:16:32.869Z,2.40
2022-10-13T11:19:05.675Z,2.40
2022-10-13T11:22:00.937Z,2.60
2022-10-13T11:24:44.831Z,2.50
2022-10-13T11:27:13.830Z,2.70
2022-10-13T11:29:51.506Z,2.70
2022-10-13T11:32:35.781Z,2.70
2022-10-13T11:35:02.046Z,2.70
2022-10-13T11:37:34.399Z,3.03
2022-10-13T11:40:16.078Z,2.70
2022-10-13T11:42:59.269Z,2.50
2022-10-13T11:45:44.909Z,3.63
2022-10-13T11:48:11.247Z,2.50
2022-10-13T11:50:52.553Z,2.60
2022-10-13T11:53:21.197Z,2.70
2022-10-13T11:56:01.422Z,2.40
2022-10-13T11:58:30.108Z,2.50
2022-10-13T12:01:08.832Z,2.40
2022-10-13T12:03:36.564Z,2.50
2022-10-13T12:06:04.624Z,2.50
2022-10-13T12:08:32.649Z,2.50
2022-10-13T12:11:01.527Z,2.40
2022-10-13T12:13:29.227Z,2.70
2022-10-13T12:16:06.423Z,2.50
2022-10-13T12:18:35.906Z,2.87
2022-10-13T12:21:04.087Z,2.70
2022-10-13T12:23:31.448Z,2.40
2022-10-13T12:25:58.718Z,2.40
2022-10-13T12:28:26.687Z,2.67
2022-10-13T12:30:54.199Z,2.60
2022-10-13T12:33:28.649Z,2.60
2022-10-13T12:35:55.495Z,2.60
2022-10-13T12:38:22.252Z,2.50
2022-10-13T12:40:49.262Z,2.50
2022-10-13T12:43:18.376Z,2.50
2022-10-13T12:45:44.642Z,2.60
2022-10-13T12:48:30.728Z,2.60
2022-10-13T12:51:07.377Z,2.60
2022-10-13T12:53:33.701Z,2.60
2022-10-13T12:56:01.857Z,2.60
2022-10-13T12:58:28.103Z,2.60
2022-10-13T13:00:55.493Z,2.60
2022-10-13T13:03:25.598Z,2.60
2022-10-13T13:06:06.459Z,2.60
2022-10-13T13:08:32.789Z,2.67
2022-10-13T13:11:00.359Z,2.90
2022-10-13T13:13:26.877Z,2.70
2022-10-13T13:15:53.170Z,2.60
2022-10-13T13:18:36.140Z,2.80
2022-10-13T13:21:04.931Z,2.83
2022-10-13T13:23:34.468Z,2.90
2022-10-13T13:26:10.378Z,2.80
2022-10-13T13:28:36.706Z,2.80
2022-10-13T13:31:03.045Z,2.80
2022-10-13T13:33:29.309Z,2.90
2022-10-13T13:35:55.712Z,2.90
2022-10-13T13:38:21.964Z,2.80
2022-10-13T13:40:48.244Z,2.90
2022-10-13T13:43:14.502Z,2.90
2022-10-13T13:45:40.827Z,2.80
2022-10-13T13:48:07.073Z,3.00
2022-10-13T13:50:35.578Z,3.00
2022-10-13T13:53:02.050Z,2.90
2022-10-13T13:55:29.737Z,2.80
2022-10-13T13:57:56.395Z,2.90
2022-10-13T14:00:22.857Z,2.63
2022-10-13T14:02:49.528Z,2.80
2022-10-13T14:05:15.839Z,2.80
2022-10-13T14:07:43.194Z,2.90
2022-10-13T14:10:10.690Z,2.90
2022-10-13T14:12:37.004Z,2.77
2022-10-13T14:15:03.389Z,2.90
2022-10-13T14:17:29.640Z,2.80
2022-10-13T14:19:55.860Z,2.80
2022-10-13T14:22:22.703Z,2.80
2022-10-13T14:24:49.358Z,2.80
2022-10-13T14:27:15.729Z,3.07
2022-10-13T14:29:41.982Z,2.93
2022-10-13T14:32:08.250Z,2.90
2022-10-13T14:34:34.510Z,2.80
2022-10-13T14:37:00.803Z,2.90
2022-10-13T14:39:27.027Z,2.90
2022-10-13T14:41:53.287Z,2.83
2022-10-13T14:44:19.532Z,2.80
2022-10-13T14:46:45.861Z,2.80
2022-10-13T14:49:12.190Z,2.80
2022-10-13T14:51:38.536Z,2.80
2022-10-13T14:54:06.791Z,3.00
2022-10-13T14:56:33.030Z,2.73
2022-10-13T14:59:00.350Z,2.70
2022-10-13T15:01:26.584Z,2.80
2022-10-13T15:03:53.168Z,2.90
2022-10-13T15:06:22.052Z,2.90
2022-10-13T15:08:48.627Z,2.87
2022-10-13T15:11:15.393Z,2.80
2022-10-13T15:13:41.637Z,2.90
2022-10-13T15:16:08.567Z,2.90
2022-10-13T15:18:36.041Z,2.90
2022-10-13T15:21:02.573Z,2.80
2022-10-13T15:23:28.827Z,2.90
2022-10-13T15:25:56.366Z,2.90
2022-10-13T15:28:27.492Z,2.80
2022-10-13T15:30:53.940Z,2.70
2022-10-13T15:33:20.162Z,2.70
2022-10-13T15:35:50.122Z,2.80
2022-10-13T15:38:16.656Z,2.80
2022-10-13T15:40:43.134Z,2.90
2022-10-13T15:43:09.499Z,2.90
2022-10-13T15:45:36.035Z,2.93
2022-10-13T15:48:02.871Z,2.90
2022-10-13T15:50:29.309Z,2.90
2022-10-13T15:52:55.796Z,2.83
2022-10-13T15:55:22.034Z,2.90
2022-10-13T15:57:48.298Z,2.90
2022-10-13T16:00:15.359Z,2.90
2022-10-13T16:02:42.535Z,2.90
2022-10-13T16:05:09.719Z,3.07
2022-10-13T16:07:36.213Z,3.00
2022-10-13T16:10:02.915Z,3.10
2022-10-13T16:12:29.365Z,3.00
2022-10-13T16:14:55.601Z,2.90
2022-10-13T16:17:21.986Z,3.10
2022-10-13T16:19:48.204Z,2.90
2022-10-13T16:22:14.480Z,3.07
2022-10-13T16:24:40.726Z,3.00
2022-10-13T16:27:07.062Z,2.93
2022-10-13T16:29:33.321Z,3.00
2022-10-13T16:32:00.373Z,3.00
2022-10-13T16:34:27.457Z,3.00
2022-10-13T16:36:54.030Z,3.00
2022-10-13T16:39:20.296Z,2.90
2022-10-13T16:41:49.636Z,2.80
2022-10-13T16:44:16.730Z,3.10
2022-10-13T16:46:43.646Z,3.20
2022-10-13T16:49:10.173Z,3.10
2022-10-13T16:51:36.549Z,3.00
2022-10-13T16:54:04.429Z,3.00
2022-10-13T16:56:31.318Z,3.10
2022-10-13T16:58:58.591Z,3.10
2022-10-13T17:01:25.328Z,3.10
2022-10-13T17:03:52.212Z,3.00
2022-10-13T17:06:19.805Z,3.10
2022-10-13T17:08:46.099Z,3.20
2022-10-13T17:11:23.392Z,3.00
2022-10-13T17:13:50.044Z,3.10
2022-10-13T17:16:16.729Z,3.20
2022-10-13T17:18:42.948Z,3.10
2022-10-13T17:21:11.909Z,3.30
2022-10-13T17:23:38.178Z,3.07
2022-10-13T17:26:05.345Z,3.30
2022-10-13T17:28:32.461Z,3.10
2022-10-13T17:30:59.214Z,3.30
2022-10-13T17:33:26.437Z,3.30
2022-10-13T17:35:53.020Z,3.10
2022-10-13T17:38:19.258Z,3.10
2022-10-13T17:40:45.563Z,3.00
2022-10-13T17:43:11.879Z,2.90
2022-10-13T17:45:38.156Z,3.20
2022-10-13T17:48:04.657Z,3.20
2022-10-13T17:50:33.807Z,3.00
2022-10-13T17:53:00.350Z,3.30
2022-10-13T17:55:26.595Z,3.57
2022-10-13T17:57:52.891Z,3.40
2022-10-13T18:00:19.214Z,3.10
2022-10-13T18:02:45.490Z,3.23
2022-10-13T18:05:12.038Z,3.50
2022-10-13T18:07:38.322Z,3.10
2022-10-13T18:10:05.541Z,3.40
2022-10-13T18:12:32.030Z,3.30
2022-10-13T18:14:58.247Z,3.20
2022-10-13T18:17:24.463Z,3.30
2022-10-13T18:19:51.016Z,3.17
2022-10-13T18:22:17.923Z,3.30
2022-10-13T18:24:44.215Z,3.03
2022-10-13T18:27:10.442Z,3.30
2022-10-13T18:29:36.654Z,3.13
2022-10-13T18:32:03.029Z,4.33
2022-10-13T18:34:29.268Z,3.20
2022-10-13T18:36:55.961Z,3.30
2022-10-13T18:39:24.974Z,3.20
2022-10-13T18:41:51.713Z,3.07
2022-10-13T18:44:18.553Z,3.30
2022-10-13T18:46:44.922Z,3.00
2022-10-13T18:49:12.521Z,3.13
2022-10-13T18:51:39.191Z,3.17
2022-10-13T18:54:05.558Z,3.10
2022-10-13T18:56:33.016Z,3.20
2022-10-13T18:59:01.162Z,3.20
2022-10-13T19:01:29.125Z,3.00
2022-10-13T19:03:55.839Z,3.10
2022-10-13T19:06:28.765Z,2.90
2022-10-13T19:09:00.473Z,2.93
2022-10-13T19:11:27.530Z,3.20
2022-10-13T19:13:53.783Z,3.20
2022-10-13T19:16:22.622Z,3.20
2022-10-13T19:18:49.470Z,3.40
2022-10-13T19:21:15.950Z,3.33
2022-10-13T19:23:43.289Z,3.37
2022-10-13T19:26:14.835Z,3.30
2022-10-13T19:28:41.791Z,3.40
2022-10-13T19:31:12.109Z,3.40
2022-10-13T19:33:44.237Z,3.37
2022-10-13T19:36:11.559Z,3.20
2022-10-13T19:38:38.323Z,3.30
2022-10-13T19:41:06.482Z,3.40
2022-10-13T19:43:33.586Z,3.33
2022-10-13T19:46:00.082Z,3.40
2022-10-13T19:48:26.718Z,3.40
2022-10-13T19:50:53.188Z,3.20
2022-10-13T19:53:19.446Z,3.30
2022-10-13T19:55:47.102Z,3.40
2022-10-13T19:58:15.814Z,3.30
2022-10-13T20:00:42.855Z,3.37
2022-10-13T20:03:09.129Z,3.20
2022-10-13T20:05:37.485Z,3.23
2022-10-13T20:08:03.912Z,3.00
2022-10-13T20:10:30.496Z,3.23
2022-10-13T20:12:57.157Z,3.47
2022-10-13T20:15:33.872Z,3.50
2022-10-13T20:18:00.269Z,3.33
2022-10-13T20:20:26.571Z,3.37
2022-10-13T20:22:52.836Z,3.20
2022-10-13T20:25:19.884Z,3.40
2022-10-13T20:27:46.530Z,3.40
2022-10-13T20:30:13.078Z,3.50
2022-10-13T20:32:39.340Z,3.40
2022-10-13T20:35:05.898Z,3.27
2022-10-13T20:37:33.167Z,3.30
2022-10-13T20:39:59.391Z,3.20
2022-10-13T20:42:25.719Z,3.33
2022-10-13T20:44:52.130Z,3.27
2022-10-13T20:47:18.628Z,3.20
2022-10-13T20:49:45.075Z,3.10
2022-10-13T20:52:11.345Z,3.50
2022-10-13T20:54:37.612Z,3.50
2022-10-13T20:57:03.886Z,3.67
2022-10-13T20:59:30.090Z,3.47
2022-10-13T21:01:56.334Z,3.30
2022-10-13T21:04:22.572Z,3.37
2022-10-13T21:06:48.829Z,3.30
2022-10-13T21:09:15.067Z,3.20
2022-10-13T21:11:41.331Z,3.30
2022-10-13T21:14:09.475Z,3.30
2022-10-13T21:16:36.081Z,3.43
2022-10-13T21:19:02.762Z,3.40
2022-10-13T21:21:30.277Z,3.30
2022-10-13T21:23:57.520Z,3.40
2022-10-13T21:26:24.516Z,3.50
2022-10-13T21:28:51.365Z,3.40
2022-10-13T21:31:25.410Z,3.50
2022-10-13T21:33:51.698Z,3.60
2022-10-13T21:36:28.543Z,3.40
2022-10-13T21:38:56.175Z,3.30
2022-10-13T21:41:22.729Z,3.30
2022-10-13T21:43:49.895Z,3.50
2022-10-13T21:46:20.854Z,3.43
2022-10-13T21:48:47.942Z,3.47
2022-10-13T21:51:15.523Z,3.40
2022-10-13T21:53:42.173Z,3.50
2022-10-13T21:56:09.203Z,3.50
2022-10-13T21:58:35.663Z,3.50
2022-10-13T22:01:02.372Z,3.30
2022-10-13T22:03:28.730Z,3.40
2022-10-13T22:05:54.984Z,3.30
2022-10-13T22:08:28.790Z,3.30
2022-10-13T22:11:04.143Z,3.50
2022-10-13T22:13:30.381Z,3.30
2022-10-13T22:16:01.315Z,3.40
2022-10-13T22:18:27.530Z,3.50
2022-10-13T22:20:53.763Z,3.30
2022-10-13T22:23:20.001Z,3.30
2022-10-13T22:25:46.277Z,3.40
2022-10-13T22:28:12.613Z,3.30
2022-10-13T22:30:39.120Z,3.30
2022-10-13T22:33:05.387Z,3.50
2022-10-13T22:35:33.227Z,3.40
2022-10-13T22:37:59.446Z,3.40
2022-10-13T22:40:25.665Z,3.90
2022-10-13T22:42:51.958Z,3.40
2022-10-13T22:45:18.187Z,3.50
2022-10-13T22:47:44.421Z,3.60
2022-10-13T22:50:10.624Z,3.30
2022-10-13T22:52:36.855Z,3.40
2022-10-13T22:55:03.140Z,3.40
2022-10-13T22:57:29.349Z,3.30
2022-10-13T22:59:55.540Z,3.50
2022-10-13T23:02:21.749Z,3.37
2022-10-13T23:04:48.627Z,3.40
2022-10-13T23:07:14.913Z,3.50
2022-10-13T23:09:41.298Z,3.40
2022-10-13T23:12:07.591Z,3.37
2022-10-13T23:14:33.843Z,3.50
2022-10-13T23:17:00.069Z,3.47
2022-10-13T23:19:26.282Z,3.30
2022-10-13T23:21:52.582Z,3.60
2022-10-13T23:24:18.786Z,3.50
2022-10-13T23:26:44.997Z,3.37
2022-10-13T23:29:11.219Z,3.40
2022-10-13T23:31:37.433Z,3.30
2022-10-13T23:34:03.691Z,3.50
2022-10-13T23:36:31.680Z,3.30
2022-10-13T23:38:59.161Z,3.20
2022-10-13T23:41:25.528Z,3.20
2022-10-13T23:43:52.135Z,3.30
2022-10-13T23:46:18.501Z,3.23
2022-10-13T23:48:45.039Z,3.20
2022-10-13T23:51:18.742Z,3.30
2022-10-13T23:53:45.235Z,3.50
2022-10-13T23:56:12.092Z,3.30
2022-10-13T23:58:39.581Z,3.43
